Des Moines, IA (50322)

5:59 PM CDT on September 01, 2015 (GMT -0500)
Cross Creek West | | Change Station
CLOSE
Current Station
Personal Weather Station
Location: Urbandale, IA
Elevation: 951 ft
Nearby Weather Stations
Active Advisory: Flood Warning

Elev 951 ft 41.64 °N, 93.74 °W | Updated 4 seconds ago

Partly Cloudy
Partly Cloudy
90.1 °F
Feels Like 86 °F
N
0.0
Wind Variable Wind from SW
Gusts 0.0 mph

Today
High -- | Low -- °F
--% Chance of Precip.
Yesterday
High -- | Low -- °F
Precip. -- in
6:40 AM 7:48 PM
Waning Gibbous, 85% visible
Pressure 29.92 in
Visibility 10.0 miles
Clouds Few 10000 ft
Mostly Cloudy 30000 ft
Heat Index 86 °F
Dew Point 44 °F
Humidity 20%
Rainfall 0.00 in
Snow Depth Not available.
UV 1 out of 12
Pollen 11.50 out of 12
Air Quality Not available.
Flu Activity Not available.
METAR KDSM 012254Z 19011KT 10SM FEW100 BKN300 31/21 A2994 RMK AO2 SLP131 T03110211
Pressure 29.92 in
Visibility 10.0 miles
Clouds Few 10000 ft
Mostly Cloudy 30000 ft
Heat Index 86 °F
Dew Point 44 °F
Humidity 20%
Rainfall 0.00 in
Snow Depth Not available.
UV 1 out of 12
Pollen 11.50 out of 12
Air Quality Not available.
Flu Activity Not available.
METAR KDSM 012254Z 19011KT 10SM FEW100 BKN300 31/21 A2994 RMK AO2 SLP131 T03110211

10-Day Weather Forecast

×

Almanac

Astronomy

Sep. 01, 2015 Rise Set
Actual Time
Civil Twilight
Nautical Twilight
Astronomical Twilight
Moon
Length of Visible Light
Length of Day
Tomorrow will be .
, % of the Moon is Illuminated

Today's Extremes

State Highs State Lows

Community

WunderPhotos

Upload Photos

1,851,634 photos uploaded!

WunderBlogs® & News

Nearby

Air Quality

  Air Quality AQ Index Pollutant
Not available.

Snow Depth

Station Depth Elevation

Earthquake Activity

City Distance Mag. Time & Date
Minimum magnitude displayed is 2.5.

Coastal Water Temperatures

Place Temperature

Stations

Nearby Weather Stations

Station Location Temp. Windchill Dew Point Humidity Wind Precip. Elev Updated Type
                   
Flood Warning
Statement as of 2:58 PM CDT on September 01, 2015

... Flood Warning now in effect until late Wednesday evening...

The Flood Warning continues for
the south Skunk River at Colfax... or from the Jasper-Polk County
line... to the Jasper-Marion County line.
* Until late Wednesday evening.
* At 12:45 PM Tuesday the stage was 18.2 feet... or 0.2 feet above
flood stage.
* Flood stage is 18.0 feet.
* Minor flooding is occurring and is forecast to continue.
* Forecast... continue falling and go below flood stage late Wednesday
evening.
* Impact... at 15.5 feet... storm sewers are closed. Water affects
nearby agricultural land.


Lat... Lon 4142 9287 4168 9335 4174 9335 4170 9309
      4151 9287 4142 9287